createdAt,value
2023-03-05T00:00:36.272Z,69.5
2023-03-05T00:01:40.411Z,69.2
2023-03-05T00:02:58.655Z,69.6
2023-03-05T00:04:01.611Z,69.7
2023-03-05T00:05:04.119Z,69.6
2023-03-05T00:06:07.656Z,69.4
2023-03-05T00:07:10.348Z,69.8
2023-03-05T00:08:12.881Z,70.1
2023-03-05T00:09:16.956Z,70
2023-03-05T00:10:20.925Z,70.3
2023-03-05T00:11:38.968Z,69.7
2023-03-05T00:12:41.557Z,69.7
2023-03-05T00:13:44.870Z,69.7
2023-03-05T00:15:02.305Z,69.8
2023-03-05T00:16:21.117Z,70.1
2023-03-05T00:17:25.946Z,69.8
2023-03-05T00:18:43.945Z,69.6
2023-03-05T00:19:47.669Z,69.7
2023-03-05T00:20:51.132Z,69.7
2023-03-05T00:21:53.641Z,69.6
2023-03-05T00:22:56.083Z,69.6
2023-03-05T00:23:59.475Z,69.7
2023-03-05T00:25:02.686Z,69.8
2023-03-05T00:26:05.376Z,69.8
2023-03-05T00:27:23.679Z,70
2023-03-05T00:28:27.129Z,70.1
2023-03-05T00:29:33.043Z,70.4
2023-03-05T00:30:36.264Z,70.4
2023-03-05T00:31:40.232Z,70.3
2023-03-05T00:32:43.083Z,70.4
2023-03-05T00:33:46.285Z,70.3
2023-03-05T00:35:04.309Z,70.4
2023-03-05T00:36:08.330Z,70.9
2023-03-05T00:37:12.789Z,71.2
2023-03-05T00:38:15.296Z,70.8
2023-03-05T00:40:37.087Z,70.3
2023-03-05T00:41:41.262Z,70.3
2023-03-05T00:42:44.563Z,70.3
2023-03-05T00:43:47.833Z,70.9
2023-03-05T00:44:51.013Z,71.3
2023-03-05T00:45:54.077Z,71
2023-03-05T00:46:58.395Z,70.9
2023-03-05T00:48:01.242Z,71.2
2023-03-05T00:49:04.167Z,71.5
2023-03-05T00:50:07.604Z,71.2
2023-03-05T00:51:10.762Z,71.1
2023-03-05T00:52:13.893Z,71
2023-03-05T00:53:17.242Z,71.2
2023-03-05T00:54:20.313Z,71.3
2023-03-05T00:55:23.760Z,71.4
2023-03-05T00:56:27.442Z,71.7
2023-03-05T00:57:30.823Z,71.8
2023-03-05T00:58:33.265Z,71.8
2023-03-05T00:59:36.331Z,71.8
2023-03-05T01:00:39.462Z,71.8
2023-03-05T01:01:42.720Z,71.8
2023-03-05T01:02:47.072Z,72.1
2023-03-05T01:03:49.863Z,72.2
2023-03-05T01:04:53.132Z,72.1
2023-03-05T01:05:56.960Z,72.4
2023-03-05T01:06:59.755Z,72.9
2023-03-05T01:08:02.851Z,72.7
2023-03-05T01:09:06.581Z,72.7
2023-03-05T01:10:09.773Z,72.7
2023-03-05T01:11:12.851Z,72.9
2023-03-05T01:12:16.031Z,73.1
2023-03-05T01:13:18.851Z,73.2
2023-03-05T01:14:21.948Z,73.2
2023-03-05T01:15:25.470Z,73.2
2023-03-05T01:16:28.716Z,73.3
2023-03-05T01:17:31.597Z,73.5
2023-03-05T01:18:35.462Z,73.4
2023-03-05T01:19:38.268Z,73.3
2023-03-05T01:20:41.135Z,73.2
2023-03-05T01:21:43.648Z,73.3
2023-03-05T01:22:46.593Z,73.4
2023-03-05T01:23:50.607Z,73.7
2023-03-05T01:24:53.509Z,74
2023-03-05T01:25:56.588Z,74
2023-03-05T01:27:00.398Z,74.1
2023-03-05T01:28:03.337Z,74
2023-03-05T01:29:06.478Z,74.1
2023-03-05T01:30:10.086Z,74.2
2023-03-05T01:31:13.111Z,74
2023-03-05T01:32:16.259Z,74.2
2023-03-05T01:33:19.171Z,74.2
2023-03-05T01:34:23.383Z,74.1
2023-03-05T01:35:26.800Z,74.3
2023-03-05T01:36:30.570Z,74.2
2023-03-05T01:37:33.281Z,74.2
2023-03-05T01:38:36.942Z,74.1
2023-03-05T01:39:39.663Z,74.1
2023-03-05T01:40:42.474Z,74.3
2023-03-05T01:41:45.031Z,74.6
2023-03-05T01:42:48.768Z,74.6
2023-03-05T01:43:51.668Z,74.5
2023-03-05T01:44:55.008Z,74.4
2023-03-05T01:45:58.653Z,74.5
2023-03-05T01:47:02.807Z,74.5
2023-03-05T01:48:05.518Z,74.5
2023-03-05T01:49:08.601Z,74.6
2023-03-05T01:50:12.781Z,74.9
2023-03-05T01:51:16.124Z,74.9
2023-03-05T01:52:19.405Z,74.9
2023-03-05T01:53:22.542Z,75.1
2023-03-05T01:54:25.869Z,74.9
2023-03-05T01:55:29.043Z,74.7
2023-03-05T01:56:32.079Z,74.8
2023-03-05T01:57:35.244Z,74.8
2023-03-05T01:58:38.616Z,74.9
2023-03-05T01:59:41.323Z,75
2023-03-05T02:00:44.932Z,75.3
2023-03-05T02:01:48.107Z,75.4
2023-03-05T02:02:51.467Z,75.4
2023-03-05T02:03:54.631Z,75.3
2023-03-05T02:04:57.890Z,75.5
2023-03-05T02:06:01.767Z,75.4
2023-03-05T02:07:05.249Z,75.4
2023-03-05T02:08:08.660Z,75.4
2023-03-05T02:09:11.183Z,75.5
2023-03-05T02:10:14.545Z,75.5
2023-03-05T02:11:17.851Z,75.6
2023-03-05T02:12:21.265Z,75.6
2023-03-05T02:13:23.983Z,75.6
2023-03-05T02:14:27.155Z,75.5
2023-03-05T02:15:30.651Z,75.7
2023-03-05T02:16:34.049Z,75.7
2023-03-05T02:17:38.036Z,75.8
2023-03-05T02:18:41.114Z,75.8
2023-03-05T02:19:43.604Z,76
2023-03-05T02:20:46.989Z,76.3
2023-03-05T02:21:51.161Z,76.5
2023-03-05T02:22:54.901Z,76.5
2023-03-05T02:23:58.206Z,76.7
2023-03-05T02:25:00.660Z,76.5
2023-03-05T02:26:03.494Z,76.4
2023-03-05T02:27:06.350Z,76.4
2023-03-05T02:28:09.238Z,76.2
2023-03-05T02:29:11.731Z,76.2
2023-03-05T02:30:15.515Z,76.1
2023-03-05T02:31:18.670Z,76
2023-03-05T02:32:22.733Z,76
2023-03-05T02:33:26.263Z,76
2023-03-05T02:34:29.596Z,76
2023-03-05T02:35:32.705Z,76.2
2023-03-05T02:36:35.708Z,76.3
2023-03-05T02:37:39.856Z,76.3
2023-03-05T02:38:43.588Z,76.3
2023-03-05T02:39:46.399Z,76.5
2023-03-05T02:40:48.876Z,76.6
2023-03-05T02:41:52.528Z,76.7
2023-03-05T02:42:54.965Z,76.7
2023-03-05T02:43:58.227Z,76.8
2023-03-05T02:45:01.964Z,76.7
2023-03-05T02:46:05.165Z,76.9
2023-03-05T02:47:08.692Z,77.1
2023-03-05T02:48:11.192Z,77.1
2023-03-05T02:49:14.948Z,77.3
2023-03-05T02:50:18.358Z,77.3
2023-03-05T02:51:21.742Z,77.4
2023-03-05T02:52:25.457Z,77.5
2023-03-05T02:53:29.481Z,77.5
2023-03-05T02:54:32.901Z,77.4
2023-03-05T02:55:36.190Z,77.4
2023-03-05T02:56:39.950Z,77.5
2023-03-05T02:57:43.225Z,77.7
2023-03-05T02:58:46.328Z,77.6
2023-03-05T02:59:49.959Z,77.5
2023-03-05T03:00:53.326Z,77.4
2023-03-05T03:01:57.165Z,77.3
2023-03-05T03:03:00.828Z,77.4
2023-03-05T03:04:04.424Z,77.5
2023-03-05T03:05:07.439Z,77.6
2023-03-05T03:06:10.448Z,77.7
2023-03-05T03:07:13.249Z,77.7
2023-03-05T03:08:16.045Z,77.7
2023-03-05T03:09:19.911Z,77.6
2023-03-05T03:10:23.373Z,77.6
2023-03-05T03:11:26.193Z,77.5
2023-03-05T03:12:29.295Z,77.6
2023-03-05T03:13:32.386Z,77.6
2023-03-05T03:14:35.801Z,77.6
2023-03-05T03:15:39.140Z,77.7
2023-03-05T03:16:42.624Z,77.5
2023-03-05T03:17:45.495Z,77.4
2023-03-05T03:18:49.058Z,77.4
2023-03-05T03:19:52.439Z,77.5
2023-03-05T03:20:54.614Z,77.5
2023-03-05T03:21:57.447Z,77.5
2023-03-05T03:23:00.590Z,77.6
2023-03-05T03:24:04.326Z,77.6
2023-03-05T03:25:08.532Z,77.6
2023-03-05T03:26:11.857Z,77.3
2023-03-05T03:27:14.663Z,77.4
2023-03-05T03:28:18.082Z,77.5
2023-03-05T03:29:21.168Z,77.5
2023-03-05T03:30:23.711Z,77.5
2023-03-05T03:31:27.068Z,77.5
2023-03-05T03:32:30.534Z,77.5
2023-03-05T03:33:33.726Z,77.7
2023-03-05T03:34:36.908Z,77.8
2023-03-05T03:35:39.849Z,77.8
2023-03-05T03:36:42.913Z,77.8
2023-03-05T03:37:45.865Z,77.7
2023-03-05T03:38:48.567Z,77.7
2023-03-05T03:39:51.074Z,77.8
2023-03-05T03:40:55.229Z,77.7
2023-03-05T03:41:58.987Z,77.7
2023-03-05T03:43:01.853Z,78
2023-03-05T03:44:05.011Z,78.2
2023-03-05T03:45:08.793Z,78.2
2023-03-05T03:46:12.011Z,78.1
2023-03-05T03:47:15.262Z,78.1
2023-03-05T03:48:17.712Z,78.1
2023-03-05T03:49:21.101Z,78.1
2023-03-05T03:50:24.819Z,78
2023-03-05T03:51:27.799Z,77.9
2023-03-05T03:52:31.243Z,77.8
2023-03-05T03:53:35.086Z,77.7
2023-03-05T03:54:38.144Z,77.8
2023-03-05T03:55:41.120Z,77.8
2023-03-05T03:56:45.267Z,78
2023-03-05T03:57:48.412Z,78.1
2023-03-05T03:58:52.151Z,78
2023-03-05T03:59:55.582Z,78.4
2023-03-05T04:00:58.108Z,78.3
2023-03-05T04:02:01.208Z,78.6
2023-03-05T04:03:04.108Z,78.7
2023-03-05T04:04:07.195Z,78.5
2023-03-05T04:05:10.008Z,78.6
2023-03-05T04:06:12.881Z,78.2
2023-03-05T04:07:16.300Z,78.2
2023-03-05T04:08:19.384Z,78.2
2023-03-05T04:09:22.542Z,78.2
2023-03-05T04:10:25.249Z,78.5
2023-03-05T04:11:28.239Z,78.7
2023-03-05T04:12:32.164Z,79
2023-03-05T04:13:35.255Z,78.6
2023-03-05T04:14:38.464Z,78.8
2023-03-05T04:15:41.739Z,78.5
2023-03-05T04:16:45.124Z,78.5
2023-03-05T04:17:48.214Z,78.4
2023-03-05T04:18:51.397Z,78.2
2023-03-05T04:19:53.987Z,78.4
2023-03-05T04:20:56.431Z,78.4
2023-03-05T04:21:59.018Z,78.4
2023-03-05T04:23:02.493Z,78.6
2023-03-05T04:24:05.025Z,78.8
2023-03-05T04:25:08.351Z,78.9
2023-03-05T04:26:11.995Z,79.2
2023-03-05T04:27:14.459Z,79.3
2023-03-05T04:28:18.592Z,79.5
2023-03-05T04:29:21.871Z,79.7
2023-03-05T04:30:24.718Z,79.9
2023-03-05T04:31:28.010Z,80
2023-03-05T04:32:31.419Z,80
2023-03-05T04:33:34.663Z,80
2023-03-05T04:34:37.826Z,80
2023-03-05T04:35:40.920Z,80
2023-03-05T04:36:44.430Z,80.1
2023-03-05T04:37:46.776Z,80.4
2023-03-05T04:38:49.562Z,80.7
2023-03-05T04:39:52.426Z,80.9
2023-03-05T04:40:55.529Z,81
2023-03-05T04:41:58.248Z,81.3
2023-03-05T04:43:01.052Z,81.5
2023-03-05T04:44:04.952Z,81.5
2023-03-05T04:45:08.248Z,81.6
2023-03-05T04:46:10.569Z,81.7
2023-03-05T04:47:13.608Z,81.8
2023-03-05T04:48:16.307Z,82.1
2023-03-05T04:49:19.621Z,82.5
2023-03-05T04:50:22.754Z,82.5
2023-03-05T04:51:25.935Z,82.6
2023-03-05T04:52:29.317Z,82.8
2023-03-05T04:53:32.677Z,82.8
2023-03-05T04:54:35.383Z,82.9
2023-03-05T04:55:39.013Z,83.2
2023-03-05T04:56:41.646Z,83.2
2023-03-05T04:57:44.167Z,83.2
2023-03-05T04:58:47.194Z,83.2
2023-03-05T04:59:51.082Z,83.5
2023-03-05T05:00:54.539Z,83.5
2023-03-05T05:01:58.111Z,83.6
2023-03-05T05:03:01.114Z,83.7
2023-03-05T05:04:04.285Z,83.7
2023-03-05T05:05:07.016Z,83.7
2023-03-05T05:06:09.467Z,83.5
2023-03-05T05:07:13.269Z,83.5
2023-03-05T05:08:16.953Z,83.7
2023-03-05T05:09:20.604Z,83.6
2023-03-05T05:10:23.965Z,83.7
2023-03-05T05:11:27.122Z,83.6
2023-03-05T05:12:30.245Z,83.5
2023-03-05T05:13:33.254Z,83.5
2023-03-05T05:14:36.656Z,83.5
2023-03-05T05:15:40.578Z,83.4
2023-03-05T05:16:43.703Z,83.4
2023-03-05T05:17:47.348Z,83.4
2023-03-05T05:18:50.706Z,83.3
2023-03-05T05:19:53.499Z,83.5
2023-03-05T05:20:56.246Z,83.5
2023-03-05T05:21:59.421Z,83.4
2023-03-05T05:23:02.032Z,83.4
2023-03-05T05:24:04.851Z,83.4
2023-03-05T05:25:07.962Z,83.3
2023-03-05T05:26:11.694Z,83.3
2023-03-05T05:27:14.866Z,83.3
2023-03-05T05:28:17.864Z,83.3
2023-03-05T05:29:21.122Z,83.2
2023-03-05T05:30:23.672Z,83.1
2023-03-05T05:31:28.099Z,83.1
2023-03-05T05:32:32.044Z,83.3
2023-03-05T05:33:35.852Z,83.2
2023-03-05T05:34:39.045Z,83.1
2023-03-05T05:35:42.926Z,83
2023-03-05T05:36:46.138Z,83.1
2023-03-05T05:37:49.928Z,83.2
2023-03-05T05:38:53.626Z,83.3
2023-03-05T05:39:56.349Z,83.5
2023-03-05T05:40:59.517Z,83.7
2023-03-05T05:42:01.683Z,83.6
2023-03-05T05:43:05.296Z,83.6
2023-03-05T05:44:08.169Z,83.6
2023-03-05T05:45:11.801Z,83.6
2023-03-05T05:46:15.935Z,83.7
2023-03-05T05:47:20.410Z,83.8
2023-03-05T05:48:23.828Z,83.8
2023-03-05T05:49:27.172Z,83.7
2023-03-05T05:50:30.627Z,83.6
2023-03-05T05:51:33.092Z,83.7
2023-03-05T05:52:36.446Z,83.7
2023-03-05T05:53:39.589Z,83.7
2023-03-05T05:54:43.315Z,83.6
2023-03-05T05:55:46.576Z,83.5
2023-03-05T05:56:49.281Z,83.8
2023-03-05T05:57:52.353Z,83.8
2023-03-05T05:58:54.800Z,84
2023-03-05T05:59:58.612Z,84
2023-03-05T06:01:01.773Z,83.9
2023-03-05T06:02:05.460Z,83.8
2023-03-05T06:03:10.091Z,83.9
2023-03-05T06:04:13.008Z,83.8
2023-03-05T06:05:16.554Z,83.8
2023-03-05T06:06:19.964Z,83.9
2023-03-05T06:07:23.417Z,84
2023-03-05T06:08:26.197Z,84
2023-03-05T06:09:29.189Z,84.2
2023-03-05T06:10:32.346Z,84.1
2023-03-05T06:11:36.210Z,84.1
2023-03-05T06:12:38.929Z,84
2023-03-05T06:13:42.645Z,83.8
2023-03-05T06:14:45.392Z,83.8
2023-03-05T06:15:48.831Z,83.6
2023-03-05T06:16:51.949Z,83.4
2023-03-05T06:17:54.746Z,83.4
2023-03-05T06:18:58.616Z,83.4
2023-03-05T06:20:01.825Z,83.4
2023-03-05T06:21:05.129Z,83.2
2023-03-05T06:22:08.208Z,83.3
2023-03-05T06:23:10.991Z,83.1
2023-03-05T06:24:14.638Z,82.9
2023-03-05T06:25:17.735Z,82.8
2023-03-05T06:26:21.101Z,82.7
2023-03-05T06:27:24.331Z,82.7
2023-03-05T06:28:26.497Z,82.7
2023-03-05T06:29:29.782Z,82.8
2023-03-05T06:30:32.547Z,82.9
2023-03-05T06:31:38.143Z,82.9
2023-03-05T06:32:41.315Z,83.1
2023-03-05T06:33:44.356Z,83.3
2023-03-05T06:34:48.517Z,83.1
2023-03-05T06:35:51.858Z,83
2023-03-05T06:36:55.083Z,83.1
2023-03-05T06:37:57.505Z,83.3
2023-03-05T06:38:59.722Z,83
2023-03-05T06:40:03.159Z,83
2023-03-05T06:41:06.509Z,83
2023-03-05T06:42:09.400Z,82.5
2023-03-05T06:43:12.274Z,82.2
2023-03-05T06:44:15.680Z,82.1
2023-03-05T06:45:18.660Z,82
2023-03-05T06:46:21.695Z,82.1
2023-03-05T06:47:24.665Z,82.1
2023-03-05T06:48:27.558Z,82.1
2023-03-05T06:49:30.295Z,81.5
2023-03-05T06:50:33.873Z,81.1
2023-03-05T06:51:36.672Z,81
2023-03-05T06:52:39.184Z,81.1
2023-03-05T06:53:42.911Z,81.3
2023-03-05T06:54:45.942Z,81.5
2023-03-05T06:55:48.805Z,80.7
2023-03-05T06:56:52.212Z,80.2
2023-03-05T06:57:55.547Z,80.1
2023-03-05T06:58:58.410Z,80.1
2023-03-05T07:00:01.438Z,80.2
2023-03-05T07:01:03.938Z,80.1
2023-03-05T07:02:07.186Z,80.6
2023-03-05T07:03:10.078Z,80.3
2023-03-05T07:04:13.417Z,80
2023-03-05T07:05:17.416Z,80.3
2023-03-05T07:06:21.710Z,80.2
2023-03-05T07:07:24.750Z,80.4
2023-03-05T07:08:27.921Z,80.5
2023-03-05T07:09:31.257Z,80
2023-03-05T07:10:34.709Z,79.6
2023-03-05T07:11:37.792Z,79.1
2023-03-05T07:12:43.763Z,79
2023-03-05T07:13:47.593Z,79.1
2023-03-05T07:14:51.051Z,79
2023-03-05T07:15:54.519Z,79
2023-03-05T07:16:57.464Z,79.2
2023-03-05T07:18:00.652Z,79.7
2023-03-05T07:19:03.099Z,79.8
2023-03-05T07:20:06.253Z,79.4
2023-03-05T07:21:09.380Z,80
2023-03-05T07:22:13.252Z,79.7
2023-03-05T07:23:16.294Z,79.6
2023-03-05T07:24:19.293Z,79.4
2023-03-05T07:25:22.012Z,78.9
2023-03-05T07:26:24.736Z,78.9
2023-03-05T07:27:27.801Z,78.8
2023-03-05T07:28:30.542Z,78.9
2023-03-05T07:29:33.601Z,79.1
2023-03-05T07:30:36.590Z,78.6
2023-03-05T07:31:40.003Z,78.5
2023-03-05T07:32:42.319Z,78.5
2023-03-05T07:33:45.320Z,78.9
2023-03-05T07:34:47.779Z,78.8
2023-03-05T07:35:51.383Z,78.5
2023-03-05T07:36:54.963Z,78.5
2023-03-05T07:37:58.599Z,78.4
2023-03-05T07:39:02.339Z,78.6
2023-03-05T07:40:05.261Z,78.1
2023-03-05T07:41:07.777Z,78.4
2023-03-05T07:42:11.110Z,78.6
2023-03-05T07:43:14.572Z,78.7
2023-03-05T07:44:17.941Z,78.1
2023-03-05T07:45:20.832Z,78
2023-03-05T07:46:24.274Z,78
2023-03-05T07:47:27.097Z,77.6
2023-03-05T07:48:30.523Z,77.5
2023-03-05T07:49:33.880Z,77.3
2023-03-05T07:50:37.596Z,76.9
2023-03-05T07:51:40.381Z,77
2023-03-05T07:52:43.586Z,77
2023-03-05T07:53:47.781Z,77.3
2023-03-05T07:54:50.537Z,77.2
2023-03-05T07:55:53.342Z,77.5
2023-03-05T07:56:55.805Z,77.7
2023-03-05T07:57:58.518Z,77.4
2023-03-05T07:59:01.250Z,77.4
2023-03-05T08:00:05.056Z,77.2
2023-03-05T08:01:08.400Z,77.4
2023-03-05T08:02:11.759Z,76.8
2023-03-05T08:03:15.467Z,76.8
2023-03-05T08:04:19.296Z,76.9
2023-03-05T08:05:22.398Z,76.8
2023-03-05T08:06:26.022Z,76.2
2023-03-05T08:07:29.433Z,77
2023-03-05T08:08:32.828Z,76.5
2023-03-05T08:09:36.977Z,76
2023-03-05T08:10:40.043Z,76.3
2023-03-05T08:11:42.945Z,75.9
2023-03-05T08:12:46.026Z,75.7
2023-03-05T08:13:49.322Z,75.7
2023-03-05T08:14:52.094Z,75.2
2023-03-05T08:15:55.793Z,74.6
2023-03-05T08:16:58.680Z,74.4
2023-03-05T08:18:02.029Z,74.5
2023-03-05T08:19:04.539Z,74.6
2023-03-05T08:20:07.054Z,74.5
2023-03-05T08:21:09.857Z,74.6
2023-03-05T08:22:12.682Z,74.7
2023-03-05T08:23:15.870Z,74.5
2023-03-05T08:24:18.305Z,74.3
2023-03-05T08:25:22.218Z,73.3
2023-03-05T08:26:26.252Z,72.8
2023-03-05T08:27:28.694Z,72.7
2023-03-05T08:28:35.168Z,72.7
2023-03-05T08:29:38.598Z,72.8
2023-03-05T08:30:41.039Z,72
2023-03-05T08:31:44.289Z,72.1
2023-03-05T08:32:47.169Z,71.8
2023-03-05T08:33:50.508Z,72.5
2023-03-05T08:34:53.898Z,72.7
2023-03-05T08:35:57.012Z,72.1
2023-03-05T08:37:00.957Z,71.6
2023-03-05T08:38:03.806Z,71.8
2023-03-05T08:39:07.429Z,71.2
2023-03-05T08:40:10.495Z,70.7
2023-03-05T08:41:14.677Z,70.5
2023-03-05T08:42:17.759Z,68.4
2023-03-05T08:43:21.202Z,67.7
2023-03-05T08:44:24.012Z,68
2023-03-05T08:45:27.380Z,67.9
2023-03-05T08:46:30.645Z,68.6
2023-03-05T08:47:33.318Z,69.1
2023-03-05T08:48:36.546Z,69
2023-03-05T08:49:39.356Z,69.5
2023-03-05T08:50:42.443Z,69.9
2023-03-05T08:51:45.332Z,69.6
2023-03-05T08:52:47.886Z,69.1
2023-03-05T08:53:51.069Z,67.4
2023-03-05T08:54:53.860Z,67.5
2023-03-05T08:55:56.917Z,66.6
2023-03-05T08:57:00.950Z,66.5
2023-03-05T08:58:04.403Z,67.1
2023-03-05T08:59:07.253Z,67.5
2023-03-05T09:00:09.972Z,66.4
2023-03-05T09:01:13.321Z,67
2023-03-05T09:02:16.307Z,65.7
2023-03-05T09:03:19.705Z,64.1
2023-03-05T09:04:23.009Z,64.4
2023-03-05T09:05:25.534Z,64.4
2023-03-05T09:06:28.557Z,64.2
2023-03-05T09:07:31.669Z,64.2
2023-03-05T09:08:34.574Z,64.4
2023-03-05T09:09:37.869Z,63.5
2023-03-05T09:10:41.288Z,63.2
2023-03-05T09:11:44.504Z,64.2
2023-03-05T09:12:48.454Z,62.9
2023-03-05T09:13:51.274Z,62.7
2023-03-05T09:14:54.075Z,61.9
2023-03-05T09:15:58.043Z,62.5
2023-03-05T09:17:00.724Z,63.5
2023-03-05T09:18:03.466Z,61.2
2023-03-05T09:19:06.530Z,60.4
2023-03-05T09:20:09.308Z,60.8
2023-03-05T09:21:12.579Z,60.4
2023-03-05T09:22:15.566Z,59.5
2023-03-05T09:23:18.624Z,58
2023-03-05T09:24:22.064Z,58.4
2023-03-05T09:25:25.127Z,58.4
2023-03-05T09:26:27.563Z,57.2
2023-03-05T09:27:31.003Z,56
2023-03-05T09:28:35.150Z,56.6
2023-03-05T09:29:39.716Z,54.2
2023-03-05T09:30:45.720Z,54.3
2023-03-05T09:31:49.556Z,54.1
2023-03-05T09:32:52.343Z,53.5
2023-03-05T09:33:56.072Z,53.7
2023-03-05T09:34:58.854Z,53.2
2023-03-05T09:36:02.061Z,53
2023-03-05T09:37:04.957Z,52.5
2023-03-05T09:38:08.085Z,53.1
2023-03-05T09:39:11.541Z,52.4
2023-03-05T09:40:14.260Z,52.2
2023-03-05T09:41:17.479Z,52.2
2023-03-05T09:42:21.219Z,51.3
2023-03-05T09:43:24.223Z,51.7
2023-03-05T09:44:28.360Z,50.7
2023-03-05T09:45:31.694Z,50.7
2023-03-05T09:46:34.990Z,50.3
2023-03-05T09:47:37.986Z,50.9
2023-03-05T09:48:40.758Z,51.4
2023-03-05T09:49:43.556Z,50.8
2023-03-05T09:50:46.875Z,50.9
2023-03-05T09:51:49.855Z,51.5
2023-03-05T09:52:52.566Z,51
2023-03-05T09:53:55.291Z,51.5
2023-03-05T09:54:58.382Z,50.9
2023-03-05T09:56:01.446Z,51.2
2023-03-05T09:57:04.849Z,52.4
2023-03-05T09:58:08.336Z,51.6
2023-03-05T09:59:11.411Z,52.7
2023-03-05T10:00:15.580Z,52.8
2023-03-05T10:01:18.785Z,52.5
2023-03-05T10:02:21.961Z,52.9
2023-03-05T10:03:24.948Z,51.9
2023-03-05T10:04:28.279Z,51
2023-03-05T10:05:31.401Z,50.8
2023-03-05T10:06:34.236Z,50.9
2023-03-05T10:07:36.938Z,51.6
2023-03-05T10:08:40.400Z,51.8
2023-03-05T10:09:43.098Z,52
2023-03-05T10:10:46.613Z,51.3
2023-03-05T10:11:49.956Z,51.7
2023-03-05T10:12:53.020Z,51.7
2023-03-05T10:13:56.082Z,52
2023-03-05T10:14:58.783Z,52
2023-03-05T10:16:02.377Z,51.6
2023-03-05T10:17:05.790Z,51
2023-03-05T10:18:08.856Z,50.9
2023-03-05T10:19:11.450Z,51.2
2023-03-05T10:20:13.959Z,50.4
2023-03-05T10:21:16.676Z,50.6
2023-03-05T10:22:20.040Z,51.2
2023-03-05T10:23:23.287Z,51.3
2023-03-05T10:24:25.713Z,52.2
2023-03-05T10:25:29.457Z,51.5
2023-03-05T10:26:32.864Z,51.9
2023-03-05T10:27:35.625Z,51.6
2023-03-05T10:28:40.329Z,51.7
2023-03-05T10:29:42.754Z,51.9
2023-03-05T10:30:46.390Z,51.6
2023-03-05T10:31:50.834Z,51.7
2023-03-05T10:32:54.354Z,51.3
2023-03-05T10:33:57.058Z,52
2023-03-05T10:35:00.611Z,51.7
2023-03-05T10:36:03.436Z,52.1
2023-03-05T10:37:06.712Z,52.3
2023-03-05T10:38:10.198Z,52.8
2023-03-05T10:39:13.295Z,53
2023-03-05T10:40:16.284Z,53.4
2023-03-05T10:41:19.902Z,53.3
2023-03-05T10:42:23.249Z,53.6
2023-03-05T10:43:25.870Z,53
2023-03-05T10:44:28.894Z,53.2
2023-03-05T10:45:32.396Z,52.8
2023-03-05T10:46:35.425Z,52.9
2023-03-05T10:47:39.584Z,52.9
2023-03-05T10:48:43.362Z,53.3
2023-03-05T10:49:47.090Z,53.9
2023-03-05T10:50:50.040Z,53.5
2023-03-05T10:51:53.200Z,53.6
2023-03-05T10:52:56.297Z,53.8
2023-03-05T10:53:59.273Z,53.8
2023-03-05T10:55:02.569Z,53.8
2023-03-05T10:56:06.097Z,53.9
2023-03-05T10:57:08.884Z,53.5
2023-03-05T10:58:12.954Z,53.9
2023-03-05T10:59:16.296Z,54.1
2023-03-05T11:00:19.506Z,54.8
2023-03-05T11:01:23.628Z,54.5
2023-03-05T11:02:27.905Z,54.9
2023-03-05T11:03:32.031Z,54.9
2023-03-05T11:04:35.403Z,54.9
2023-03-05T11:05:39.059Z,54.5
2023-03-05T11:06:42.826Z,54.3
2023-03-05T11:07:45.875Z,54.8
2023-03-05T11:08:49.038Z,53.8
2023-03-05T11:09:51.895Z,53.6
2023-03-05T11:10:54.678Z,53.8
2023-03-05T11:11:57.478Z,53.5
2023-03-05T11:13:00.291Z,54
2023-03-05T11:14:04.100Z,54.1
2023-03-05T11:15:07.207Z,54.3
2023-03-05T11:16:10.426Z,54.9
2023-03-05T11:17:13.804Z,54.8
2023-03-05T11:18:17.273Z,54.6
2023-03-05T11:19:21.260Z,54.4
2023-03-05T11:20:24.746Z,54.2
2023-03-05T11:21:28.621Z,54.2
2023-03-05T11:22:31.998Z,54.4
2023-03-05T11:23:35.342Z,54.5
2023-03-05T11:24:38.371Z,53.9
2023-03-05T11:25:40.616Z,54.4
2023-03-05T11:26:43.766Z,54.5
2023-03-05T11:27:47.360Z,54.1
2023-03-05T11:28:53.658Z,54.5
2023-03-05T11:29:56.681Z,54.4
2023-03-05T11:30:59.605Z,54.4
2023-03-05T11:32:02.710Z,54.5
2023-03-05T11:33:06.603Z,54.8
2023-03-05T11:34:12.596Z,55.2
2023-03-05T11:35:16.716Z,55.4
2023-03-05T11:36:19.506Z,55.9
2023-03-05T11:37:22.505Z,56.1
2023-03-05T11:38:25.991Z,55.5
2023-03-05T11:39:29.184Z,55.7
2023-03-05T11:40:32.253Z,55.5
2023-03-05T11:41:35.347Z,56.3
2023-03-05T11:42:38.568Z,56.5
2023-03-05T11:43:42.195Z,56.8
2023-03-05T11:44:45.596Z,56
2023-03-05T11:45:49.222Z,56.1
2023-03-05T11:46:52.407Z,56
2023-03-05T11:47:55.801Z,57
2023-03-05T11:48:59.307Z,56.6
2023-03-05T11:50:02.927Z,55.4
2023-03-05T11:51:06.964Z,55.3
2023-03-05T11:52:10.345Z,55.1
2023-03-05T11:53:13.529Z,54.8
2023-03-05T11:54:16.264Z,53.7
2023-03-05T11:55:19.481Z,53.8
2023-03-05T11:56:21.964Z,53.7
2023-03-05T11:57:25.046Z,54.2
2023-03-05T11:58:27.980Z,53.6
2023-03-05T11:59:31.780Z,53.7
2023-03-05T12:00:34.574Z,53.8
2023-03-05T12:01:38.283Z,54
2023-03-05T12:02:41.267Z,54.2
2023-03-05T12:03:44.648Z,55
2023-03-05T12:04:47.990Z,54.4
2023-03-05T12:05:51.110Z,54.3
2023-03-05T12:06:55.266Z,54.6
2023-03-05T12:07:58.303Z,54.5
2023-03-05T12:09:01.291Z,54.3
2023-03-05T12:10:04.505Z,54.5
2023-03-05T12:11:07.694Z,54.9
2023-03-05T12:12:10.980Z,54.5
2023-03-05T12:13:14.085Z,54.1
2023-03-05T12:14:17.528Z,54.2
2023-03-05T12:15:20.813Z,54.8
2023-03-05T12:16:24.359Z,54.9
2023-03-05T12:17:27.311Z,54.6
2023-03-05T12:18:31.041Z,54.7
2023-03-05T12:19:34.742Z,55.3
2023-03-05T12:20:38.776Z,55.1
2023-03-05T12:21:43.262Z,54.3
2023-03-05T12:22:47.483Z,54.1
2023-03-05T12:23:50.656Z,53.7
2023-03-05T12:24:53.552Z,53.7
2023-03-05T12:25:57.284Z,54
2023-03-05T12:26:59.812Z,53.6
2023-03-05T12:28:02.806Z,53.7
2023-03-05T12:29:06.240Z,53.8
2023-03-05T12:30:09.681Z,53.6
2023-03-05T12:31:12.818Z,54.8
2023-03-05T12:32:16.069Z,54.9
2023-03-05T12:33:18.889Z,54.1
2023-03-05T12:34:22.887Z,53.9
2023-03-05T12:35:26.291Z,53.7
2023-03-05T12:36:28.823Z,53.7
2023-03-05T12:37:32.620Z,53.6
2023-03-05T12:38:36.477Z,53.3
2023-03-05T12:39:40.308Z,52.7
2023-03-05T12:40:44.189Z,52.2
2023-03-05T12:41:48.257Z,52.7
2023-03-05T12:42:51.175Z,52.4
2023-03-05T12:43:54.271Z,52.6
2023-03-05T12:44:57.690Z,52.8
2023-03-05T12:46:00.195Z,52.4
2023-03-05T12:47:03.419Z,51.6
2023-03-05T12:48:06.656Z,52.3
2023-03-05T12:49:10.107Z,51.6
2023-03-05T12:50:13.098Z,51.6
2023-03-05T12:51:16.668Z,51.9
2023-03-05T12:52:19.840Z,51.3
2023-03-05T12:53:23.417Z,51.5
2023-03-05T12:54:27.544Z,51.7
2023-03-05T12:55:30.618Z,51.5
2023-03-05T12:56:34.272Z,51.5
2023-03-05T12:57:37.456Z,51.6
2023-03-05T12:58:40.844Z,52
2023-03-05T12:59:44.132Z,52.8
2023-03-05T13:00:47.684Z,53.4
2023-03-05T13:01:51.487Z,54.3
2023-03-05T13:02:55.098Z,54.5
2023-03-05T13:03:58.586Z,54.7
2023-03-05T13:05:01.776Z,52.7
2023-03-05T13:06:05.325Z,52.6
2023-03-05T13:07:08.944Z,52.3
2023-03-05T13:08:16.621Z,52.6
2023-03-05T13:09:20.048Z,52.1
2023-03-05T13:10:24.412Z,52.1
2023-03-05T13:11:27.878Z,52.1
2023-03-05T13:12:31.150Z,52.2
2023-03-05T13:13:33.858Z,52.3
2023-03-05T13:14:36.963Z,52.3
2023-03-05T13:15:40.072Z,52.4
2023-03-05T13:16:43.637Z,52.6
2023-03-05T13:17:46.994Z,52.8
2023-03-05T13:18:49.692Z,52.3
2023-03-05T13:19:53.003Z,51.7
2023-03-05T13:20:56.102Z,51.7
2023-03-05T13:21:58.641Z,51.8
2023-03-05T13:23:02.362Z,51.7
2023-03-05T13:24:05.126Z,52.3
2023-03-05T13:25:08.194Z,52.5
2023-03-05T13:26:12.157Z,52
2023-03-05T13:27:15.667Z,52
2023-03-05T13:28:19.048Z,51.9
2023-03-05T13:29:22.792Z,51.5
2023-03-05T13:30:25.941Z,51.2
2023-03-05T13:31:29.104Z,51.8
2023-03-05T13:32:32.968Z,52
2023-03-05T13:33:36.232Z,52.1
2023-03-05T13:34:48.951Z,52.4
2023-03-05T13:35:55.443Z,52.5
2023-03-05T13:36:58.919Z,52.3
2023-03-05T13:38:03.329Z,52.5
2023-03-05T13:39:07.022Z,52.3
2023-03-05T13:40:10.265Z,52.1
2023-03-05T13:41:14.801Z,52.3
2023-03-05T13:42:19.979Z,52.7
2023-03-05T13:43:23.323Z,52.2
2023-03-05T13:44:26.560Z,53
2023-03-05T13:45:29.801Z,53.1
2023-03-05T13:46:33.732Z,53
2023-03-05T13:47:37.172Z,52.6
2023-03-05T13:48:40.383Z,52.7
2023-03-05T13:49:44.041Z,52
2023-03-05T13:50:47.043Z,52.4
2023-03-05T13:51:50.171Z,52.7
2023-03-05T13:52:53.539Z,52.6
2023-03-05T13:53:56.621Z,52.8
2023-03-05T13:54:59.929Z,52.8
2023-03-05T13:56:02.468Z,52.8
2023-03-05T13:57:06.356Z,52.5
2023-03-05T13:58:09.879Z,52.7
2023-03-05T13:59:13.285Z,52.8
2023-03-05T14:00:17.939Z,52.7
2023-03-05T14:01:21.795Z,52.8
2023-03-05T14:02:24.915Z,52.8
2023-03-05T14:03:29.868Z,53.4
2023-03-05T14:04:33.354Z,53.5
2023-03-05T14:05:35.948Z,53.5
2023-03-05T14:06:39.351Z,53.5
2023-03-05T14:07:43.114Z,53.5
2023-03-05T14:08:45.834Z,53.3
2023-03-05T14:09:48.822Z,53.3
2023-03-05T14:10:51.890Z,53.3